Time;durP1;ratioP1;P1;durP2;ratioP2;P2;SDS_P1;SDS_P2;PMS_P1;PMS_P2;Temp;Humidity;BMP_temperature;BMP_pressure;BME280_temperature;BME280_humidity;BME280_pressure;Samples;Min_cycle;Max_cycle;Signal;HPM_P1;HPM_P2
2023/06/26 00:01:31;;;;;;;;;;;18.60;62.80;;;;;;6245115;23;20002;-85
2023/06/26 00:04:16;;;;;;;;;;;18.60;62.80;;;;;;6220404;23;19915;-84
2023/06/26 00:06:42;;;;;;;;;;;18.60;63.00;;;;;;6194918;23;19927;-83
2023/06/26 00:09:08;;;;;;;;;;;18.60;63.00;;;;;;6220840;23;19911;-87
2023/06/26 00:11:34;;;;;;;;;;;18.50;62.70;;;;;;6219818;23;19918;-84
2023/06/26 00:14:00;;;;;;;;;;;18.50;63.30;;;;;;6220425;23;20381;-86
2023/06/26 00:16:26;;;;;;;;;;;18.50;63.30;;;;;;6245439;23;19919;-86
2023/06/26 00:18:53;;;;;;;;;;;18.50;63.50;;;;;;6246042;23;19964;-83
2023/06/26 00:21:19;;;;;;;;;;;18.50;63.70;;;;;;6245098;23;19911;-83
2023/06/26 00:23:46;;;;;;;;;;;18.50;64.10;;;;;;6220716;23;20222;-85
2023/06/26 00:26:12;;;;;;;;;;;18.40;63.90;;;;;;6245629;23;19911;-83
2023/06/26 00:28:38;;;;;;;;;;;18.40;63.50;;;;;;6245945;22;19911;-86
2023/06/26 00:31:04;;;;;;;;;;;18.30;64.30;;;;;;6245673;23;19912;-85
2023/06/26 00:33:30;;;;;;;;;;;18.40;63.80;;;;;;6220683;23;19912;-86
2023/06/26 00:35:55;;;;;;;;;;;18.40;64.30;;;;;;6245075;23;19973;-84
2023/06/26 00:38:21;;;;;;;;;;;18.40;64.40;;;;;;6220450;23;19911;-86
2023/06/26 00:40:47;;;;;;;;;;;18.30;64.10;;;;;;6245440;23;19912;-85
2023/06/26 00:43:13;;;;;;;;;;;18.40;64.20;;;;;;6220551;23;19946;-86
2023/06/26 00:45:39;;;;;;;;;;;18.40;65.20;;;;;;6220047;23;20307;-86
2023/06/26 00:48:05;;;;;;;;;;;18.30;64.40;;;;;;6220404;23;19943;-83
2023/06/26 00:50:32;;;;;;;;;;;18.30;64.60;;;;;;6275162;22;19922;-84
2023/06/26 00:53:00;;;;;;;;;;;18.20;64.30;;;;;;6250582;22;19915;-83
2023/06/26 00:55:46;;;;;;;;;;;18.30;64.40;;;;;;6250040;22;19915;-83
2023/06/26 00:58:12;;;;;;;;;;;18.30;65.00;;;;;;6250360;22;20217;-84
2023/06/26 01:00:38;;;;;;;;;;;18.30;64.90;;;;;;6224924;22;19934;-86
2023/06/26 01:03:04;;;;;;;;;;;18.20;65.00;;;;;;6250490;22;20284;-87
2023/06/26 01:05:30;;;;;;;;;;;18.20;65.00;;;;;;6224527;22;19989;-84
2023/06/26 01:07:58;;;;;;;;;;;18.20;64.80;;;;;;6250290;22;19911;-83
2023/06/26 01:10:24;;;;;;;;;;;18.20;64.90;;;;;;6250116;22;19911;-84
2023/06/26 01:12:50;;;;;;;;;;;18.20;64.60;;;;;;6250600;22;19911;-87
2023/06/26 01:15:16;;;;;;;;;;;18.20;65.00;;;;;;6249984;22;19957;-86
2023/06/26 01:17:45;;;;;;;;;;;18.20;65.00;;;;;;6224959;22;19911;-84
2023/06/26 01:20:11;;;;;;;;;;;18.20;64.20;;;;;;6250576;22;19911;-84
2023/06/26 01:23:14;;;;;;;;;;;18.10;64.50;;;;;;6250224;22;19915;-87
2023/06/26 01:25:59;;;;;;;;;;;18.10;64.80;;;;;;6276997;22;19939;-87
2023/06/26 01:28:25;;;;;;;;;;;18.00;64.80;;;;;;6250336;22;19918;-83
2023/06/26 01:30:51;;;;;;;;;;;18.00;64.50;;;;;;6249785;22;19917;-87
2023/06/26 01:33:17;;;;;;;;;;;17.90;64.20;;;;;;6250294;22;20309;-87
2023/06/26 01:35:44;;;;;;;;;;;17.90;64.80;;;;;;6249877;22;19957;-87
2023/06/26 01:38:28;;;;;;;;;;;17.90;65.00;;;;;;6225112;22;19918;-83
2023/06/26 01:40:54;;;;;;;;;;;17.90;65.10;;;;;;6249710;22;19911;-87
2023/06/26 01:43:38;;;;;;;;;;;17.90;65.30;;;;;;6225109;22;20328;-82
2023/06/26 01:46:25;;;;;;;;;;;17.90;65.30;;;;;;6276792;22;19911;-82
2023/06/26 01:49:10;;;;;;;;;;;17.80;65.30;;;;;;6244928;22;20280;-82
2023/06/26 01:51:58;;;;;;;;;;;17.80;65.50;;;;;;6244750;23;20256;-87
2023/06/26 01:54:25;;;;;;;;;;;17.70;65.30;;;;;;6245509;23;19908;-87
2023/06/26 01:56:53;;;;;;;;;;;17.70;65.30;;;;;;6244579;23;19922;-83
2023/06/26 01:59:21;;;;;;;;;;;17.60;65.10;;;;;;6245301;22;19911;-83
2023/06/26 02:01:47;;;;;;;;;;;17.60;65.10;;;;;;6244656;23;20302;-83
2023/06/26 02:04:13;;;;;;;;;;;17.50;65.10;;;;;;6245181;23;19907;-89
2023/06/26 02:06:39;;;;;;;;;;;17.30;64.60;;;;;;6244721;23;20238;-82
2023/06/26 02:09:05;;;;;;;;;;;17.30;65.30;;;;;;6244943;23;19942;-84
2023/06/26 02:11:31;;;;;;;;;;;17.20;65.30;;;;;;6244660;23;20329;-85
2023/06/26 02:13:56;;;;;;;;;;;17.20;65.30;;;;;;6245325;22;20324;-84
2023/06/26 02:16:23;;;;;;;;;;;17.20;65.30;;;;;;6219521;23;20002;-85
2023/06/26 02:18:49;;;;;;;;;;;17.20;65.00;;;;;;6245486;23;20298;-85
2023/06/26 02:21:14;;;;;;;;;;;17.20;65.00;;;;;;6246050;23;19923;-84
2023/06/26 02:23:40;;;;;;;;;;;17.20;65.00;;;;;;6219933;23;19934;-88
2023/06/26 02:26:06;;;;;;;;;;;17.10;65.00;;;;;;6244832;23;19915;-83
2023/06/26 02:28:34;;;;;;;;;;;17.10;65.30;;;;;;6220978;23;19935;-84
2023/06/26 02:31:00;;;;;;;;;;;17.20;65.30;;;;;;6246630;23;19923;-89
2023/06/26 02:33:26;;;;;;;;;;;17.20;65.70;;;;;;6222114;23;19966;-85
2023/06/26 02:35:52;;;;;;;;;;;17.10;66.00;;;;;;6246542;23;19915;-89
2023/06/26 02:38:18;;;;;;;;;;;17.10;66.00;;;;;;6247234;22;19961;-88
2023/06/26 02:40:44;;;;;;;;;;;17.10;65.70;;;;;;6246633;23;19916;-85
2023/06/26 02:43:10;;;;;;;;;;;17.10;65.50;;;;;;6221983;23;19912;-90
2023/06/26 02:45:36;;;;;;;;;;;17.10;65.40;;;;;;6221263;23;19946;-90
2023/06/26 02:48:02;;;;;;;;;;;17.10;65.40;;;;;;6247048;23;19998;-90
2023/06/26 02:50:28;;;;;;;;;;;17.10;65.50;;;;;;6220911;23;19920;-85
2023/06/26 02:52:54;;;;;;;;;;;17.10;65.70;;;;;;6221941;23;20237;-86
2023/06/26 02:55:21;;;;;;;;;;;17.00;65.70;;;;;;6246306;23;20026;-88
2023/06/26 02:57:46;;;;;;;;;;;17.10;65.90;;;;;;6247177;22;20049;-86
2023/06/26 03:00:13;;;;;;;;;;;17.10;66.10;;;;;;6221145;23;19978;-85
2023/06/26 03:02:39;;;;;;;;;;;17.00;66.10;;;;;;6247059;22;19915;-87
2023/06/26 03:05:05;;;;;;;;;;;17.10;66.10;;;;;;6221498;23;19970;-87
2023/06/26 03:07:31;;;;;;;;;;;17.00;65.80;;;;;;6246775;23;19965;-89
2023/06/26 03:09:57;;;;;;;;;;;17.00;66.00;;;;;;6221700;23;19911;-85
2023/06/26 03:12:24;;;;;;;;;;;17.10;66.00;;;;;;6220910;23;20034;-88
2023/06/26 03:14:50;;;;;;;;;;;17.00;65.90;;;;;;6222195;23;19986;-86
2023/06/26 03:17:16;;;;;;;;;;;17.00;66.00;;;;;;6221145;23;19935;-89
2023/06/26 03:19:42;;;;;;;;;;;17.00;66.00;;;;;;6221548;23;20244;-88
2023/06/26 03:22:08;;;;;;;;;;;16.90;66.00;;;;;;6246213;22;19995;-88
2023/06/26 03:24:34;;;;;;;;;;;16.90;66.20;;;;;;6248200;22;19912;-88
2023/06/26 03:27:00;;;;;;;;;;;16.90;66.10;;;;;;6220926;23;19912;-89
2023/06/26 03:29:26;;;;;;;;;;;16.90;66.00;;;;;;6221872;23;19987;-89
2023/06/26 03:31:51;;;;;;;;;;;16.90;66.20;;;;;;6221032;23;20284;-88
2023/06/26 03:34:17;;;;;;;;;;;16.90;66.30;;;;;;6221747;23;20302;-89
2023/06/26 03:36:43;;;;;;;;;;;16.90;66.20;;;;;;6221017;23;19950;-89
2023/06/26 03:39:09;;;;;;;;;;;16.90;66.20;;;;;;6246455;22;19942;-88
2023/06/26 03:41:35;;;;;;;;;;;16.90;66.20;;;;;;6246334;23;19918;-87
2023/06/26 03:44:01;;;;;;;;;;;16.90;66.10;;;;;;6221422;23;19998;-89
2023/06/26 03:46:29;;;;;;;;;;;16.90;66.10;;;;;;6246126;23;20244;-89
2023/06/26 03:48:55;;;;;;;;;;;16.90;66.20;;;;;;6251634;22;19915;-90
2023/06/26 03:51:21;;;;;;;;;;;16.90;66.60;;;;;;6225753;22;20006;-86
2023/06/26 03:53:46;;;;;;;;;;;16.90;66.70;;;;;;6226725;22;19911;-89
2023/06/26 03:56:13;;;;;;;;;;;17.00;66.60;;;;;;6225772;22;20268;-86
2023/06/26 03:58:39;;;;;;;;;;;17.00;66.60;;;;;;6252103;22;19934;-90
2023/06/26 04:01:05;;;;;;;;;;;16.90;66.60;;;;;;6225641;22;19911;-87
2023/06/26 04:03:32;;;;;;;;;;;16.90;66.70;;;;;;6226492;22;20260;-87
2023/06/26 04:05:57;;;;;;;;;;;16.90;66.60;;;;;;6251418;22;19934;-87
2023/06/26 04:08:26;;;;;;;;;;;17.00;66.70;;;;;;6226310;22;19954;-87
2023/06/26 04:10:53;;;;;;;;;;;17.00;66.40;;;;;;6250671;22;19911;-88
2023/06/26 04:13:19;;;;;;;;;;;17.00;66.30;;;;;;6251462;22;19915;-88
2023/06/26 04:15:45;;;;;;;;;;;17.10;66.70;;;;;;6277811;22;19918;-88
2023/06/26 04:18:12;;;;;;;;;;;17.10;66.70;;;;;;6226004;22;19942;-88
2023/06/26 04:21:16;;;;;;;;;;;17.20;66.70;;;;;;6225853;22;19910;-89
2023/06/26 04:23:42;;;;;;;;;;;17.20;66.70;;;;;;6251355;22;19910;-89
2023/06/26 04:26:09;;;;;;;;;;;17.20;67.30;;;;;;6225440;22;20280;-87
2023/06/26 04:28:35;;;;;;;;;;;17.20;67.20;;;;;;6226053;22;20006;-88
2023/06/26 04:31:19;;;;;;;;;;;17.20;67.30;;;;;;6250792;22;20343;-87
2023/06/26 04:33:50;;;;;;;;;;;17.30;67.40;;;;;;6251301;22;20236;-87
2023/06/26 04:36:38;;;;;;;;;;;17.40;67.10;;;;;;6226373;22;19918;-88
2023/06/26 04:39:04;;;;;;;;;;;17.40;66.90;;;;;;6252017;22;20309;-88
2023/06/26 04:41:30;;;;;;;;;;;17.50;68.00;;;;;;6225157;22;19911;-87
2023/06/26 04:43:56;;;;;;;;;;;17.50;67.40;;;;;;6226115;22;19937;-88
2023/06/26 04:46:22;;;;;;;;;;;17.60;67.70;;;;;;6225121;22;19985;-87
2023/06/26 04:48:48;;;;;;;;;;;17.60;67.50;;;;;;6220614;23;19915;-87
2023/06/26 04:51:14;;;;;;;;;;;17.70;67.30;;;;;;6220045;23;19950;-88
2023/06/26 04:53:40;;;;;;;;;;;17.70;67.30;;;;;;6246136;22;19998;-88
2023/06/26 04:56:06;;;;;;;;;;;17.80;67.10;;;;;;6220080;23;19995;-87
2023/06/26 04:58:32;;;;;;;;;;;17.80;67.30;;;;;;6220711;23;19911;-86
2023/06/26 05:00:58;;;;;;;;;;;17.90;67.20;;;;;;6245568;23;19942;-86
2023/06/26 05:03:24;;;;;;;;;;;18.00;67.30;;;;;;6246976;22;20321;-87
2023/06/26 05:05:50;;;;;;;;;;;18.00;67.00;;;;;;6220348;23;19917;-87
2023/06/26 05:08:36;;;;;;;;;;;18.10;66.90;;;;;;6220590;23;19912;-87
2023/06/26 05:11:02;;;;;;;;;;;18.20;66.90;;;;;;6220150;23;19916;-87
2023/06/26 05:13:27;;;;;;;;;;;18.20;67.00;;;;;;6220547;23;19931;-85
2023/06/26 05:15:53;;;;;;;;;;;18.30;66.90;;;;;;6245086;23;19990;-87
2023/06/26 05:18:19;;;;;;;;;;;18.40;67.10;;;;;;6220323;23;20002;-86
2023/06/26 05:20:45;;;;;;;;;;;18.40;66.90;;;;;;6245106;23;19912;-85
2023/06/26 05:23:12;;;;;;;;;;;18.50;66.20;;;;;;6220091;23;19918;-87
2023/06/26 05:25:38;;;;;;;;;;;18.60;66.60;;;;;;6245295;23;19912;-85
2023/06/26 05:28:05;;;;;;;;;;;18.60;66.20;;;;;;6245545;22;19919;-87
2023/06/26 05:30:34;;;;;;;;;;;18.70;66.60;;;;;;6245132;23;19911;-88
2023/06/26 05:33:01;;;;;;;;;;;18.80;66.40;;;;;;6245827;22;19994;-86
2023/06/26 05:35:32;;;;;;;;;;;18.80;66.40;;;;;;6219833;23;19919;-88
2023/06/26 05:37:58;;;;;;;;;;;18.90;66.60;;;;;;6245572;23;19982;-87
2023/06/26 05:40:25;;;;;;;;;;;19.00;65.90;;;;;;6244992;23;19926;-87
2023/06/26 05:42:51;;;;;;;;;;;19.00;67.00;;;;;;6220163;23;20379;-85
2023/06/26 05:45:17;;;;;;;;;;;19.10;66.60;;;;;;6244932;23;20293;-87
2023/06/26 05:47:43;;;;;;;;;;;19.20;67.60;;;;;;6219975;23;19990;-86
2023/06/26 05:50:10;;;;;;;;;;;19.30;67.10;;;;;;6219174;23;20318;-84
2023/06/26 05:52:36;;;;;;;;;;;19.40;66.50;;;;;;6220203;23;19911;-87
2023/06/26 05:55:22;;;;;;;;;;;19.50;66.20;;;;;;6245235;23;19946;-84
2023/06/26 05:57:50;;;;;;;;;;;19.70;65.70;;;;;;6245541;23;20421;-87
2023/06/26 06:00:16;;;;;;;;;;;19.80;65.40;;;;;;6219352;23;19918;-87
2023/06/26 06:02:43;;;;;;;;;;;19.90;64.70;;;;;;6245822;23;19915;-87
2023/06/26 06:05:09;;;;;;;;;;;20.00;64.90;;;;;;6246884;23;20230;-87
2023/06/26 06:07:35;;;;;;;;;;;20.10;64.20;;;;;;6247417;22;19961;-86
2023/06/26 06:10:02;;;;;;;;;;;20.20;64.60;;;;;;6247194;23;19969;-86
2023/06/26 06:12:28;;;;;;;;;;;20.40;64.30;;;;;;6246778;22;19918;-86
2023/06/26 06:14:55;;;;;;;;;;;20.50;64.40;;;;;;6247073;23;19912;-84
2023/06/26 06:17:21;;;;;;;;;;;20.60;63.90;;;;;;6246543;22;20148;-85
2023/06/26 06:19:47;;;;;;;;;;;20.70;63.80;;;;;;6221921;23;19911;-85
2023/06/26 06:22:13;;;;;;;;;;;20.80;63.40;;;;;;6221137;23;19990;-87
2023/06/26 06:24:39;;;;;;;;;;;20.90;63.20;;;;;;6246682;23;19915;-82
2023/06/26 06:27:05;;;;;;;;;;;21.00;62.30;;;;;;6246225;22;19907;-84
2023/06/26 06:29:31;;;;;;;;;;;21.20;62.80;;;;;;6247272;23;20281;-83
2023/06/26 06:31:57;;;;;;;;;;;21.30;62.60;;;;;;6246302;23;19907;-86
2023/06/26 06:34:23;;;;;;;;;;;21.40;62.30;;;;;;6272718;22;20226;-84
2023/06/26 06:36:49;;;;;;;;;;;21.50;62.10;;;;;;6221178;23;19923;-84
2023/06/26 06:39:16;;;;;;;;;;;21.60;62.00;;;;;;6248544;22;19915;-84
2023/06/26 06:41:42;;;;;;;;;;;21.70;61.80;;;;;;6246272;23;19911;-86
2023/06/26 06:44:08;;;;;;;;;;;21.80;61.20;;;;;;6246937;22;19911;-87
2023/06/26 06:46:34;;;;;;;;;;;22.00;61.70;;;;;;6246321;23;19911;-86
2023/06/26 06:49:00;;;;;;;;;;;22.10;61.30;;;;;;6221115;23;19918;-84
2023/06/26 06:51:26;;;;;;;;;;;22.20;60.30;;;;;;6247458;22;19911;-81
2023/06/26 06:53:52;;;;;;;;;;;22.40;60.10;;;;;;6246749;22;20276;-82
2023/06/26 06:56:18;;;;;;;;;;;22.50;60.50;;;;;;6220708;23;19942;-84
2023/06/26 06:58:46;;;;;;;;;;;22.60;60.30;;;;;;6246489;22;19911;-84
2023/06/26 07:01:30;;;;;;;;;;;22.70;60.30;;;;;;6247224;22;20314;-86
2023/06/26 07:03:57;;;;;;;;;;;22.80;59.80;;;;;;6248270;23;19994;-83
2023/06/26 07:06:23;;;;;;;;;;;23.00;59.80;;;;;;6245937;23;19915;-82
2023/06/26 07:08:49;;;;;;;;;;;23.10;59.30;;;;;;6221095;23;19915;-85
2023/06/26 07:11:15;;;;;;;;;;;23.20;58.90;;;;;;6245930;23;19912;-86
2023/06/26 07:13:41;;;;;;;;;;;23.40;58.60;;;;;;6221143;23;19911;-83
2023/06/26 07:16:09;;;;;;;;;;;23.60;58.50;;;;;;6245111;23;19912;-85
2023/06/26 07:18:37;;;;;;;;;;;23.80;58.40;;;;;;6246219;23;19911;-86
2023/06/26 07:21:02;;;;;;;;;;;23.90;58.10;;;;;;6245609;23;20285;-85
2023/06/26 07:23:28;;;;;;;;;;;23.90;58.20;;;;;;6220750;23;20139;-86
2023/06/26 07:25:54;;;;;;;;;;;24.00;58.90;;;;;;6246963;22;19911;-83
2023/06/26 07:28:20;;;;;;;;;;;24.10;58.10;;;;;;6246098;22;20341;-80
2023/06/26 07:30:46;;;;;;;;;;;24.10;58.20;;;;;;6220077;23;19912;-84
2023/06/26 07:33:12;;;;;;;;;;;24.20;57.50;;;;;;6246324;22;19994;-85
2023/06/26 07:35:38;;;;;;;;;;;24.20;57.30;;;;;;6245402;23;20333;-84
2023/06/26 07:38:04;;;;;;;;;;;24.30;57.20;;;;;;6246067;23;20307;-82
2023/06/26 07:40:30;;;;;;;;;;;24.40;57.70;;;;;;6219729;23;19993;-81
2023/06/26 07:42:58;;;;;;;;;;;24.50;56.70;;;;;;6220466;23;20210;-86
2023/06/26 07:45:24;;;;;;;;;;;24.60;56.30;;;;;;6220524;23;19919;-86
2023/06/26 07:47:50;;;;;;;;;;;24.70;56.20;;;;;;6245497;23;20284;-85
2023/06/26 07:50:21;;;;;;;;;;;24.80;55.80;;;;;;6275651;22;19915;-87
2023/06/26 07:52:47;;;;;;;;;;;24.90;55.70;;;;;;6250881;22;19933;-85
2023/06/26 07:55:13;;;;;;;;;;;25.00;54.60;;;;;;6250225;22;19957;-84
2023/06/26 07:57:39;;;;;;;;;;;25.20;55.20;;;;;;6250925;22;20291;-82
2023/06/26 08:00:08;;;;;;;;;;;25.30;55.00;;;;;;6250198;22;19911;-83
2023/06/26 08:02:33;;;;;;;;;;;25.30;54.40;;;;;;6250524;22;19981;-84
2023/06/26 08:04:59;;;;;;;;;;;25.40;54.30;;;;;;6224989;22;19950;-81
2023/06/26 08:07:25;;;;;;;;;;;25.50;54.20;;;;;;6250188;22;19986;-83
2023/06/26 08:09:51;;;;;;;;;;;25.60;53.80;;;;;;6225518;22;19994;-86
2023/06/26 08:12:17;;;;;;;;;;;25.80;53.80;;;;;;6277112;22;20343;-85
2023/06/26 08:14:43;;;;;;;;;;;25.80;53.10;;;;;;6224923;22;19986;-82
2023/06/26 08:17:09;;;;;;;;;;;25.90;52.60;;;;;;6276757;22;20333;-81
2023/06/26 08:19:35;;;;;;;;;;;25.90;52.00;;;;;;6225438;22;19911;-84
2023/06/26 08:22:01;;;;;;;;;;;26.00;52.20;;;;;;6277196;22;20357;-85
2023/06/26 08:24:27;;;;;;;;;;;26.10;52.20;;;;;;6225709;22;19997;-84
2023/06/26 08:26:53;;;;;;;;;;;26.20;50.50;;;;;;6224184;22;19911;-84
2023/06/26 08:29:19;;;;;;;;;;;26.30;50.50;;;;;;6251033;22;20357;-86
2023/06/26 08:31:45;;;;;;;;;;;26.50;50.50;;;;;;6249817;22;20307;-84
2023/06/26 08:34:11;;;;;;;;;;;26.60;50.30;;;;;;6225181;22;19938;-83
2023/06/26 08:36:38;;;;;;;;;;;26.70;50.20;;;;;;6249922;22;19917;-86
2023/06/26 08:39:05;;;;;;;;;;;26.80;49.50;;;;;;6251056;22;19911;-86
2023/06/26 08:41:31;;;;;;;;;;;26.90;48.30;;;;;;6225254;22;19918;-85
2023/06/26 08:43:57;;;;;;;;;;;27.00;48.70;;;;;;6225208;22;19942;-83
2023/06/26 08:46:23;;;;;;;;;;;27.10;49.30;;;;;;6249567;22;19918;-83
2023/06/26 08:48:55;;;;;;;;;;;27.30;47.00;;;;;;6221554;23;19961;-83
2023/06/26 08:51:24;;;;;;;;;;;27.30;47.10;;;;;;6219464;23;19926;-83
2023/06/26 08:54:09;;;;;;;;;;;27.40;46.40;;;;;;6220040;23;19911;-85
2023/06/26 08:56:54;;;;;;;;;;;27.40;44.30;;;;;;6219108;23;19911;-86
2023/06/26 08:59:20;;;;;;;;;;;27.50;44.60;;;;;;6220320;23;20230;-85
2023/06/26 09:01:45;;;;;;;;;;;27.70;41.40;;;;;;6244660;23;20277;-84
2023/06/26 09:04:11;;;;;;;;;;;27.70;42.00;;;;;;6245640;23;19964;-81
2023/06/26 09:06:39;;;;;;;;;;;27.70;43.30;;;;;;6219042;23;20320;-87
2023/06/26 09:09:05;;;;;;;;;;;27.90;43.90;;;;;;6245342;23;20264;-85
2023/06/26 09:11:31;;;;;;;;;;;28.00;44.40;;;;;;6219217;23;19951;-83
2023/06/26 09:13:57;;;;;;;;;;;28.10;42.90;;;;;;6246355;23;19939;-82
2023/06/26 09:16:44;;;;;;;;;;;28.10;42.30;;;;;;6244434;23;20249;-86
2023/06/26 09:19:30;;;;;;;;;;;28.20;41.70;;;;;;6195374;23;20313;-82
2023/06/26 09:21:57;;;;;;;;;;;28.30;41.50;;;;;;6219323;23;19966;-82
2023/06/26 09:24:23;;;;;;;;;;;28.40;40.80;;;;;;6220147;23;19962;-83
2023/06/26 09:26:49;;;;;;;;;;;28.50;40.70;;;;;;6218893;23;20078;-83
2023/06/26 09:29:15;;;;;;;;;;;28.60;40.00;;;;;;6219630;23;19946;-81
2023/06/26 09:31:41;;;;;;;;;;;28.70;39.30;;;;;;6244031;23;19912;-85
2023/06/26 09:34:07;;;;;;;;;;;28.90;38.90;;;;;;6219772;23;19919;-85
2023/06/26 09:36:33;;;;;;;;;;;29.10;38.30;;;;;;6219341;23;19912;-86
2023/06/26 09:39:00;;;;;;;;;;;29.30;38.20;;;;;;6221821;23;19923;-81
2023/06/26 09:41:27;;;;;;;;;;;29.70;37.70;;;;;;6246682;23;19999;-87
2023/06/26 09:43:52;;;;;;;;;;;30.00;37.70;;;;;;6247248;23;20280;-85
2023/06/26 09:46:37;;;;;;;;;;;30.50;37.40;;;;;;6246352;23;19912;-82
2023/06/26 09:49:23;;;;;;;;;;;30.90;35.30;;;;;;6231382;22;19911;-81
2023/06/26 09:51:49;;;;;;;;;;;31.70;34.80;;;;;;6252047;22;19930;-82
2023/06/26 09:54:16;;;;;;;;;;;32.50;32.80;;;;;;6251966;22;19911;-83
2023/06/26 09:56:43;;;;;;;;;;;33.00;31.30;;;;;;6251516;22;19998;-83
2023/06/26 09:59:09;;;;;;;;;;;33.90;31.00;;;;;;6251873;22;19943;-85
2023/06/26 10:01:41;;;;;;;;;;;34.70;29.30;;;;;;6226044;22;20017;-80
2023/06/26 10:04:07;;;;;;;;;;;35.00;28.60;;;;;;6251823;22;19911;-82
2023/06/26 10:06:36;;;;;;;;;;;35.40;27.80;;;;;;6251367;22;19939;-83
2023/06/26 10:09:03;;;;;;;;;;;36.00;27.70;;;;;;6251973;22;19969;-85
2023/06/26 10:12:07;;;;;;;;;;;36.80;27.30;;;;;;6251423;22;19947;-83
2023/06/26 10:14:51;;;;;;;;;;;37.40;26.20;;;;;;6278695;22;20003;-84
2023/06/26 10:17:20;;;;;;;;;;;38.10;24.80;;;;;;6277996;22;19907;-82
2023/06/26 10:19:47;;;;;;;;;;;38.70;24.70;;;;;;6251831;22;19993;-84
2023/06/26 10:22:15;;;;;;;;;;;39.50;24.70;;;;;;6225334;22;19907;-83
2023/06/26 10:24:42;;;;;;;;;;;40.20;24.10;;;;;;6251357;22;19911;-82
2023/06/26 10:27:28;;;;;;;;;;;40.70;23.40;;;;;;6250440;22;19906;-81
2023/06/26 10:29:56;;;;;;;;;;;41.10;21.80;;;;;;6251186;22;19961;-81
2023/06/26 10:32:24;;;;;;;;;;;41.10;20.50;;;;;;6225386;22;20289;-81
2023/06/26 10:34:51;;;;;;;;;;;41.70;21.30;;;;;;6251059;22;19911;-80
2023/06/26 10:37:17;;;;;;;;;;;42.40;21.50;;;;;;6250506;22;19907;-79
2023/06/26 10:40:02;;;;;;;;;;;43.00;20.80;;;;;;6251251;22;19949;-81
2023/06/26 10:42:38;;;;;;;;;;;43.20;20.50;;;;;;6225290;22;19912;-82
2023/06/26 10:45:23;;;;;;;;;;;43.90;19.20;;;;;;6250710;22;20351;-81
2023/06/26 10:47:53;;;;;;;;;;;44.50;18.80;;;;;;6250981;22;19938;-80
2023/06/26 10:50:37;;;;;;;;;;;44.90;18.40;;;;;;6275689;22;19916;-81
2023/06/26 10:53:35;;;;;;;;;;;45.30;18.00;;;;;;6249192;22;19911;-81
2023/06/26 10:56:01;;;;;;;;;;;45.50;17.00;;;;;;6251470;22;20288;-80
2023/06/26 10:58:47;;;;;;;;;;;46.10;17.00;;;;;;6249218;22;19938;-80
2023/06/26 11:01:31;;;;;;;;;;;46.70;16.10;;;;;;6223219;22;19949;-81
2023/06/26 11:04:16;;;;;;;;;;;47.00;16.00;;;;;;6249297;22;19915;-81
2023/06/26 11:06:45;;;;;;;;;;;47.20;15.90;;;;;;6275723;22;20723;-80
2023/06/26 11:09:13;;;;;;;;;;;47.60;15.60;;;;;;6249100;22;19915;-80
2023/06/26 11:11:59;;;;;;;;;;;48.10;15.90;;;;;;6275669;22;19981;-81
2023/06/26 11:14:26;;;;;;;;;;;48.70;15.30;;;;;;6249535;22;19950;-79
2023/06/26 11:16:52;;;;;;;;;;;49.20;15.30;;;;;;6248644;22;19937;-80
2023/06/26 11:19:19;;;;;;;;;;;49.60;15.30;;;;;;6249197;22;20268;-79
2023/06/26 11:21:46;;;;;;;;;;;50.10;14.40;;;;;;6248479;22;19911;-80
2023/06/26 11:24:12;;;;;;;;;;;50.20;13.20;;;;;;6249293;22;20304;-79
2023/06/26 11:26:59;;;;;;;;;;;50.50;14.00;;;;;;6248674;22;19911;-80
2023/06/26 11:29:25;;;;;;;;;;;50.80;13.10;;;;;;6249165;22;20371;-81
2023/06/26 11:31:59;;;;;;;;;;;51.40;13.50;;;;;;6248374;22;19911;-80
2023/06/26 11:34:29;;;;;;;;;;;51.40;12.90;;;;;;6249425;22;19911;-82
2023/06/26 11:36:56;;;;;;;;;;;51.70;12.60;;;;;;6248631;22;20389;-81
2023/06/26 11:39:22;;;;;;;;;;;51.90;12.50;;;;;;6249304;22;19933;-81
2023/06/26 11:41:49;;;;;;;;;;;50.60;12.80;;;;;;6223126;22;19911;-82
2023/06/26 11:44:19;;;;;;;;;;;50.60;12.40;;;;;;6249150;22;19915;-82
2023/06/26 11:46:46;;;;;;;;;;;49.40;13.50;;;;;;6275509;22;20005;-81
2023/06/26 11:49:11;;;;;;;;;;;49.00;13.50;;;;;;6194846;22;1261579;-80
2023/06/26 11:51:37;;;;;;;;;;;49.80;13.40;;;;;;6224589;22;19911;-80
2023/06/26 11:54:04;;;;;;;;;;;50.50;12.80;;;;;;6250516;22;20301;-81
2023/06/26 11:56:30;;;;;;;;;;;50.60;12.80;;;;;;6249822;22;19925;-80
2023/06/26 11:59:15;;;;;;;;;;;50.90;12.30;;;;;;6250608;22;19934;-80
2023/06/26 12:01:44;;;;;;;;;;;51.60;12.70;;;;;;6249395;22;19915;-80
2023/06/26 12:04:12;;;;;;;;;;;51.80;11.30;;;;;;6250944;22;20277;-80
2023/06/26 12:06:40;;;;;;;;;;;52.10;12.30;;;;;;6249893;22;19919;-81
2023/06/26 12:09:09;;;;;;;;;;;52.60;11.70;;;;;;6250443;22;19986;-79
2023/06/26 12:11:37;;;;;;;;;;;52.80;11.20;;;;;;6224550;22;19915;-80
2023/06/26 12:14:03;;;;;;;;;;;52.50;11.10;;;;;;6250348;22;19907;-80
2023/06/26 12:16:30;;;;;;;;;;;51.00;11.80;;;;;;6249456;22;19919;-80
2023/06/26 12:19:15;;;;;;;;;;;50.40;12.40;;;;;;6250359;22;19907;-80
2023/06/26 12:21:41;;;;;;;;;;;51.20;12.40;;;;;;6249598;22;20222;-80
2023/06/26 12:24:08;;;;;;;;;;;51.80;11.50;;;;;;6249841;22;19907;-81
2023/06/26 12:26:36;;;;;;;;;;;52.30;12.00;;;;;;6249653;22;19915;-81
2023/06/26 12:29:21;;;;;;;;;;;51.60;11.40;;;;;;6250608;22;19922;-80
2023/06/26 12:32:02;;;;;;;;;;;50.00;12.90;;;;;;5110514;27;19923;-81
2023/06/26 12:34:50;;;;;;;;;;;50.70;12.40;;;;;;5109994;28;20333;-79
2023/06/26 12:37:17;;;;;;;;;;;49.90;12.50;;;;;;5110605;28;19994;-79
2023/06/26 12:40:04;;;;;;;;;;;47.80;13.40;;;;;;5109925;28;19923;-79
2023/06/26 12:42:33;;;;;;;;;;;46.80;14.00;;;;;;5092909;28;19962;-79
2023/06/26 12:44:59;;;;;;;;;;;45.70;15.00;;;;;;5111101;28;19927;-80
2023/06/26 12:47:44;;;;;;;;;;;46.70;15.10;;;;;;5109200;28;19912;-79
2023/06/26 12:50:10;;;;;;;;;;;48.20;14.40;;;;;;5108953;28;20313;-80
2023/06/26 12:52:35;;;;;;;;;;;48.90;13.60;;;;;;5109647;28;19916;-79
2023/06/26 12:55:01;;;;;;;;;;;49.40;13.90;;;;;;5110846;28;20380;-79
2023/06/26 12:57:27;;;;;;;;;;;49.50;13.70;;;;;;5092099;28;19926;-79
2023/06/26 12:59:53;;;;;;;;;;;48.50;13.40;;;;;;5109334;28;19923;-79
2023/06/26 13:02:20;;;;;;;;;;;47.20;13.80;;;;;;5108955;28;19962;-79
2023/06/26 13:04:45;;;;;;;;;;;46.10;15.40;;;;;;5092402;28;20284;-81
2023/06/26 13:07:12;;;;;;;;;;;45.30;16.50;;;;;;5108692;28;19992;-79
2023/06/26 13:09:38;;;;;;;;;;;44.40;17.10;;;;;;5092071;28;19916;-78
2023/06/26 13:12:05;;;;;;;;;;;43.70;17.60;;;;;;5091727;28;20391;-82
2023/06/26 13:14:32;;;;;;;;;;;43.00;18.00;;;;;;5109116;28;19982;-80
2023/06/26 13:16:59;;;;;;;;;;;42.40;18.60;;;;;;5108702;28;19968;-79
2023/06/26 13:19:25;;;;;;;;;;;41.90;18.60;;;;;;5109116;28;20007;-81
2023/06/26 13:21:51;;;;;;;;;;;41.40;18.70;;;;;;5108634;28;19923;-81
2023/06/26 13:24:17;;;;;;;;;;;40.80;19.20;;;;;;5109115;28;19938;-80
2023/06/26 13:26:43;;;;;;;;;;;40.30;20.20;;;;;;5108598;28;19924;-79
2023/06/26 13:29:09;;;;;;;;;;;39.90;20.40;;;;;;5108898;28;19923;-79
2023/06/26 13:31:35;;;;;;;;;;;39.70;20.10;;;;;;5108102;28;19924;-79
2023/06/26 13:34:03;;;;;;;;;;;39.40;20.60;;;;;;5108593;28;19915;-81
2023/06/26 13:36:29;;;;;;;;;;;39.10;20.90;;;;;;5108469;28;19924;-78
2023/06/26 13:38:55;;;;;;;;;;;38.90;20.90;;;;;;5091775;28;19939;-82
2023/06/26 13:41:40;;;;;;;;;;;38.70;21.10;;;;;;5088816;28;20121;-80
2023/06/26 13:44:05;;;;;;;;;;;38.50;21.20;;;;;;5096239;28;19916;-78
2023/06/26 13:46:31;;;;;;;;;;;38.10;21.60;;;;;;5094909;28;20302;-80
2023/06/26 13:48:57;;;;;;;;;;;37.90;21.30;;;;;;5094924;28;19969;-80
2023/06/26 13:51:23;;;;;;;;;;;37.30;22.20;;;;;;5077685;28;20023;-80
2023/06/26 13:53:49;;;;;;;;;;;37.10;22.80;;;;;;5078315;28;20345;-82
2023/06/26 13:56:15;;;;;;;;;;;36.80;21.90;;;;;;5094620;28;19924;-78
2023/06/26 13:58:41;;;;;;;;;;;36.60;22.80;;;;;;5096105;28;19922;-83
2023/06/26 14:01:07;;;;;;;;;;;36.60;23.30;;;;;;5094435;28;19928;-88
2023/06/26 14:03:33;;;;;;;;;;;36.50;22.90;;;;;;5078015;28;19948;-83
2023/06/26 14:05:59;;;;;;;;;;;36.30;23.20;;;;;;5077832;28;19930;-85
2023/06/26 14:08:25;;;;;;;;;;;36.20;23.80;;;;;;5094741;28;19916;-80
2023/06/26 14:10:51;;;;;;;;;;;36.20;24.10;;;;;;5077495;28;19924;-84
2023/06/26 14:13:17;;;;;;;;;;;36.10;24.30;;;;;;5077720;28;19916;-80
2023/06/26 14:15:43;;;;;;;;;;;35.90;23.30;;;;;;5094455;28;19924;-85
2023/06/26 14:18:09;;;;;;;;;;;35.80;23.70;;;;;;5077746;28;20436;-85
2023/06/26 14:20:35;;;;;;;;;;;35.80;24.00;;;;;;5095440;28;19924;-78
2023/06/26 14:23:02;;;;;;;;;;;35.70;24.20;;;;;;5094358;28;19920;-84
2023/06/26 14:25:28;;;;;;;;;;;35.60;24.40;;;;;;5094287;28;20308;-80